sensor_id;sensor_type;location;lat;lon;timestamp;pressure;altitude;pressure_sealevel;temperature
86246;BMP280;76916;0.000;0.000;2024-03-06T08:28:20;102386.660000;;;20.540000
86246;BMP280;76916;0.000;0.000;2024-03-06T08:29:21;102385.000000;;;20.650000
86246;BMP280;76916;0.000;0.000;2024-03-06T08:30:10;102394.090000;;;20.730000
86246;BMP280;76916;0.000;0.000;2024-03-06T08:31:05;102391.230000;;;20.800000
86246;BMP280;76916;0.000;0.000;2024-03-06T08:32:00;102393.190000;;;20.850000
86246;BMP280;76916;0.000;0.000;2024-03-06T08:32:55;102387.810000;;;20.910000
86246;BMP280;76916;0.000;0.000;2024-03-06T08:33:50;102393.660000;;;20.950000
86246;BMP280;76916;0.000;0.000;2024-03-06T08:34:45;102397.000000;;;20.990000
86246;BMP280;76916;0.000;0.000;2024-03-06T09:22:15;102432.890000;;;21.070000
86246;BMP280;76916;0.000;0.000;2024-03-06T09:23:10;102432.120000;;;21.080000
86246;BMP280;76916;0.000;0.000;2024-03-06T09:24:05;102436.940000;;;21.080000
86246;BMP280;76916;0.000;0.000;2024-03-06T09:25:00;102437.070000;;;21.080000
86246;BMP280;76916;0.000;0.000;2024-03-06T09:25:55;102434.090000;;;21.070000
86246;BMP280;76916;0.000;0.000;2024-03-06T09:26:50;102433.440000;;;21.090000
86246;BMP280;76916;0.000;0.000;2024-03-06T09:27:45;102434.720000;;;21.100000
86246;BMP280;76916;0.000;0.000;2024-03-06T09:28:40;102434.550000;;;21.110000
86246;BMP280;76916;0.000;0.000;2024-03-06T09:29:35;102436.060000;;;21.120000
86246;BMP280;76916;0.000;0.000;2024-03-06T09:30:30;102434.970000;;;21.130000
86246;BMP280;76916;0.000;0.000;2024-03-06T09:31:25;102440.170000;;;21.140000
86246;BMP280;76916;0.000;0.000;2024-03-06T09:32:20;102441.170000;;;21.150000
86246;BMP280;76916;0.000;0.000;2024-03-06T09:33:15;102443.810000;;;21.160000
86246;BMP280;76916;0.000;0.000;2024-03-06T09:34:10;102444.480000;;;21.170000
86246;BMP280;76916;0.000;0.000;2024-03-06T09:35:06;102444.800000;;;21.180000
86246;BMP280;76916;0.000;0.000;2024-03-06T09:36:00;102444.950000;;;21.200000
86246;BMP280;76916;0.000;0.000;2024-03-06T09:36:55;102442.610000;;;21.210000
86246;BMP280;76916;0.000;0.000;2024-03-06T09:37:50;102448.420000;;;21.220000
86246;BMP280;76916;0.000;0.000;2024-03-06T09:38:45;102445.410000;;;21.220000
86246;BMP280;76916;0.000;0.000;2024-03-06T09:39:46;102454.150000;;;21.240000
86246;BMP280;76916;0.000;0.000;2024-03-06T09:40:39;102450.000000;;;21.240000
86246;BMP280;76916;0.000;0.000;2024-03-06T09:41:30;102449.690000;;;21.240000
86246;BMP280;76916;0.000;0.000;2024-03-06T09:42:25;102451.810000;;;21.240000
86246;BMP280;76916;0.000;0.000;2024-03-06T09:43:20;102447.670000;;;21.250000
86246;BMP280;76916;0.000;0.000;2024-03-06T09:44:15;102447.270000;;;21.260000
86246;BMP280;76916;0.000;0.000;2024-03-06T09:45:11;102445.720000;;;21.270000
86246;BMP280;76916;0.000;0.000;2024-03-06T09:46:05;102444.310000;;;21.270000
86246;BMP280;76916;0.000;0.000;2024-03-06T09:47:02;102458.280000;;;21.280000
86246;BMP280;76916;0.000;0.000;2024-03-06T09:47:55;102450.860000;;;21.280000
86246;BMP280;76916;0.000;0.000;2024-03-06T09:48:49;102452.580000;;;21.290000
86246;BMP280;76916;0.000;0.000;2024-03-06T09:49:44;102451.810000;;;21.290000
86246;BMP280;76916;0.000;0.000;2024-03-06T09:50:40;102455.940000;;;21.300000
86246;BMP280;76916;0.000;0.000;2024-03-06T09:51:34;102454.890000;;;21.300000
86246;BMP280;76916;0.000;0.000;2024-03-06T09:52:30;102451.880000;;;21.310000
86246;BMP280;76916;0.000;0.000;2024-03-06T09:53:24;102456.250000;;;21.310000
86246;BMP280;76916;0.000;0.000;2024-03-06T09:54:19;102454.190000;;;21.320000
86246;BMP280;76916;0.000;0.000;2024-03-06T09:55:15;102459.530000;;;21.320000
86246;BMP280;76916;0.000;0.000;2024-03-06T09:56:09;102460.690000;;;21.330000
86246;BMP280;76916;0.000;0.000;2024-03-06T09:57:04;102460.050000;;;21.330000
86246;BMP280;76916;0.000;0.000;2024-03-06T09:57:59;102459.320000;;;21.330000
86246;BMP280;76916;0.000;0.000;2024-03-06T09:58:54;102462.600000;;;21.340000
86246;BMP280;76916;0.000;0.000;2024-03-06T09:59:49;102458.020000;;;21.340000
86246;BMP280;76916;0.000;0.000;2024-03-06T10:00:45;102461.860000;;;21.360000
86246;BMP280;76916;0.000;0.000;2024-03-06T10:01:41;102463.390000;;;21.360000
86246;BMP280;76916;0.000;0.000;2024-03-06T10:02:36;102463.340000;;;21.360000
86246;BMP280;76916;0.000;0.000;2024-03-06T10:03:29;102461.130000;;;21.370000
86246;BMP280;76916;0.000;0.000;2024-03-06T10:04:24;102463.500000;;;21.370000
86246;BMP280;76916;0.000;0.000;2024-03-06T10:05:22;102462.090000;;;21.370000
86246;BMP280;76916;0.000;0.000;2024-03-06T10:06:16;102463.340000;;;21.380000
86246;BMP280;76916;0.000;0.000;2024-03-06T10:07:09;102466.580000;;;21.380000
86246;BMP280;76916;0.000;0.000;2024-03-06T10:08:05;102463.480000;;;21.390000
86246;BMP280;76916;0.000;0.000;2024-03-06T10:09:03;102464.050000;;;21.390000
86246;BMP280;76916;0.000;0.000;2024-03-06T10:09:55;102464.080000;;;21.390000
86246;BMP280;76916;0.000;0.000;2024-03-06T10:10:49;102465.610000;;;21.390000
86246;BMP280;76916;0.000;0.000;2024-03-06T10:11:44;102464.670000;;;21.400000
86246;BMP280;76916;0.000;0.000;2024-03-06T10:12:39;102465.720000;;;21.400000
86246;BMP280;76916;0.000;0.000;2024-03-06T10:13:34;102469.000000;;;21.410000
86246;BMP280;76916;0.000;0.000;2024-03-06T10:14:29;102466.910000;;;21.410000
86246;BMP280;76916;0.000;0.000;2024-03-06T10:15:24;102465.870000;;;21.410000
86246;BMP280;76916;0.000;0.000;2024-03-06T10:16:19;102467.670000;;;21.420000
86246;BMP280;76916;0.000;0.000;2024-03-06T10:17:18;102464.980000;;;21.420000
86246;BMP280;76916;0.000;0.000;2024-03-06T10:18:09;102468.630000;;;21.420000
86246;BMP280;76916;0.000;0.000;2024-03-06T10:19:14;102465.970000;;;21.430000
86246;BMP280;76916;0.000;0.000;2024-03-06T10:19:59;102472.190000;;;21.440000
86246;BMP280;76916;0.000;0.000;2024-03-06T10:20:54;102472.030000;;;21.440000
86246;BMP280;76916;0.000;0.000;2024-03-06T10:21:49;102477.280000;;;21.450000
86246;BMP280;76916;0.000;0.000;2024-03-06T10:22:44;102472.780000;;;21.450000
86246;BMP280;76916;0.000;0.000;2024-03-06T10:23:39;102469.170000;;;21.450000
86246;BMP280;76916;0.000;0.000;2024-03-06T10:24:34;102468.880000;;;21.450000
86246;BMP280;76916;0.000;0.000;2024-03-06T10:25:29;102467.590000;;;21.460000
86246;BMP280;76916;0.000;0.000;2024-03-06T10:26:24;102467.450000;;;21.440000
86246;BMP280;76916;0.000;0.000;2024-03-06T10:27:19;102466.610000;;;21.430000
86246;BMP280;76916;0.000;0.000;2024-03-06T10:28:14;102473.010000;;;21.430000
86246;BMP280;76916;0.000;0.000;2024-03-06T10:29:08;102469.000000;;;21.420000
86246;BMP280;76916;0.000;0.000;2024-03-06T10:30:04;102470.270000;;;21.390000
86246;BMP280;76916;0.000;0.000;2024-03-06T10:31:02;102469.990000;;;21.390000
86246;BMP280;76916;0.000;0.000;2024-03-06T10:31:54;102468.520000;;;21.370000
86246;BMP280;76916;0.000;0.000;2024-03-06T10:32:49;102470.060000;;;21.360000
86246;BMP280;76916;0.000;0.000;2024-03-06T10:33:43;102465.020000;;;21.330000
86246;BMP280;76916;0.000;0.000;2024-03-06T10:34:38;102467.920000;;;21.320000
86246;BMP280;76916;0.000;0.000;2024-03-06T10:35:34;102467.530000;;;21.300000
86246;BMP280;76916;0.000;0.000;2024-03-06T10:36:31;102468.200000;;;21.300000
86246;BMP280;76916;0.000;0.000;2024-03-06T10:37:23;102464.940000;;;21.250000
86246;BMP280;76916;0.000;0.000;2024-03-06T10:38:19;102463.780000;;;21.250000
86246;BMP280;76916;0.000;0.000;2024-03-06T10:39:14;102462.610000;;;21.250000
86246;BMP280;76916;0.000;0.000;2024-03-06T10:40:09;102463.280000;;;21.260000
86246;BMP280;76916;0.000;0.000;2024-03-06T10:41:03;102465.840000;;;21.270000
86246;BMP280;76916;0.000;0.000;2024-03-06T10:42:03;102462.260000;;;21.280000
86246;BMP280;76916;0.000;0.000;2024-03-06T10:42:54;102464.550000;;;21.280000
86246;BMP280;76916;0.000;0.000;2024-03-06T10:43:48;102461.410000;;;21.290000
86246;BMP280;76916;0.000;0.000;2024-03-06T10:44:45;102461.920000;;;21.300000
86246;BMP280;76916;0.000;0.000;2024-03-06T10:45:40;102463.890000;;;21.300000
86246;BMP280;76916;0.000;0.000;2024-03-06T10:46:33;102452.360000;;;21.310000
86246;BMP280;76916;0.000;0.000;2024-03-06T10:47:29;102459.020000;;;21.310000
86246;BMP280;76916;0.000;0.000;2024-03-06T10:48:23;102460.270000;;;21.310000
86246;BMP280;76916;0.000;0.000;2024-03-06T10:49:18;102461.980000;;;21.320000
86246;BMP280;76916;0.000;0.000;2024-03-06T10:50:13;102463.380000;;;21.320000
86246;BMP280;76916;0.000;0.000;2024-03-06T10:51:08;102466.310000;;;21.330000
86246;BMP280;76916;0.000;0.000;2024-03-06T10:52:04;102469.040000;;;21.330000
86246;BMP280;76916;0.000;0.000;2024-03-06T10:52:58;102464.420000;;;21.340000
86246;BMP280;76916;0.000;0.000;2024-03-06T10:53:53;102464.660000;;;21.340000
86246;BMP280;76916;0.000;0.000;2024-03-06T10:54:48;102461.840000;;;21.340000
86246;BMP280;76916;0.000;0.000;2024-03-06T10:55:43;102466.780000;;;21.340000
86246;BMP280;76916;0.000;0.000;2024-03-06T10:56:39;102466.060000;;;21.340000
86246;BMP280;76916;0.000;0.000;2024-03-06T10:57:33;102465.700000;;;21.340000
86246;BMP280;76916;0.000;0.000;2024-03-06T10:58:28;102469.300000;;;21.350000
86246;BMP280;76916;0.000;0.000;2024-03-06T10:59:24;102469.950000;;;21.350000
86246;BMP280;76916;0.000;0.000;2024-03-06T11:00:19;102468.220000;;;21.360000
86246;BMP280;76916;0.000;0.000;2024-03-06T11:01:13;102472.910000;;;21.360000
86246;BMP280;76916;0.000;0.000;2024-03-06T11:02:09;102469.530000;;;21.360000
86246;BMP280;76916;0.000;0.000;2024-03-06T11:03:04;102472.190000;;;21.370000
86246;BMP280;76916;0.000;0.000;2024-03-06T11:03:58;102471.020000;;;21.370000
86246;BMP280;76916;0.000;0.000;2024-03-06T11:04:53;102469.800000;;;21.370000
86246;BMP280;76916;0.000;0.000;2024-03-06T11:05:48;102475.300000;;;21.380000
86246;BMP280;76916;0.000;0.000;2024-03-06T11:06:44;102467.470000;;;21.380000
86246;BMP280;76916;0.000;0.000;2024-03-06T11:07:38;102468.830000;;;21.380000
86246;BMP280;76916;0.000;0.000;2024-03-06T11:08:33;102470.630000;;;21.390000
86246;BMP280;76916;0.000;0.000;2024-03-06T11:09:28;102471.670000;;;21.390000
86246;BMP280;76916;0.000;0.000;2024-03-06T11:10:30;102474.600000;;;21.390000
86246;BMP280;76916;0.000;0.000;2024-03-06T11:11:19;102474.840000;;;21.400000
86246;BMP280;76916;0.000;0.000;2024-03-06T11:12:13;102473.480000;;;21.390000
86246;BMP280;76916;0.000;0.000;2024-03-06T11:13:08;102474.360000;;;21.400000
86246;BMP280;76916;0.000;0.000;2024-03-06T11:14:03;102479.890000;;;21.410000
86246;BMP280;76916;0.000;0.000;2024-03-06T11:14:58;102480.970000;;;21.410000
86246;BMP280;76916;0.000;0.000;2024-03-06T11:15:53;102481.410000;;;21.420000
86246;BMP280;76916;0.000;0.000;2024-03-06T11:17:03;102474.260000;;;21.420000
86246;BMP280;76916;0.000;0.000;2024-03-06T11:17:42;102477.940000;;;21.440000
86246;BMP280;76916;0.000;0.000;2024-03-06T11:18:41;102481.230000;;;21.430000
86246;BMP280;76916;0.000;0.000;2024-03-06T11:20:07;102477.660000;;;21.440000
86246;BMP280;76916;0.000;0.000;2024-03-06T11:20:28;102481.340000;;;21.440000
86246;BMP280;76916;0.000;0.000;2024-03-06T11:21:30;102480.700000;;;21.440000
86246;BMP280;76916;0.000;0.000;2024-03-06T11:22:18;102482.060000;;;21.450000
86246;BMP280;76916;0.000;0.000;2024-03-06T11:23:13;102483.340000;;;21.460000
86246;BMP280;76916;0.000;0.000;2024-03-06T11:24:15;102478.750000;;;21.460000
86246;BMP280;76916;0.000;0.000;2024-03-06T11:25:02;102485.830000;;;21.460000
86246;BMP280;76916;0.000;0.000;2024-03-06T11:26:01;102485.700000;;;21.470000
86246;BMP280;76916;0.000;0.000;2024-03-06T11:26:56;102486.130000;;;21.480000
86246;BMP280;76916;0.000;0.000;2024-03-06T11:28:02;102487.420000;;;21.480000
86246;BMP280;76916;0.000;0.000;2024-03-06T11:28:42;102483.520000;;;21.480000
86246;BMP280;76916;0.000;0.000;2024-03-06T11:30:09;102482.750000;;;21.490000
86246;BMP280;76916;0.000;0.000;2024-03-06T11:30:32;102483.870000;;;21.490000
86246;BMP280;76916;0.000;0.000;2024-03-06T11:31:27;102488.640000;;;21.500000
86246;BMP280;76916;0.000;0.000;2024-03-06T11:32:22;102492.660000;;;21.500000
86246;BMP280;76916;0.000;0.000;2024-03-06T11:33:17;102484.450000;;;21.510000
86246;BMP280;76916;0.000;0.000;2024-03-06T11:34:14;102485.020000;;;21.510000
86246;BMP280;76916;0.000;0.000;2024-03-06T11:35:07;102489.800000;;;21.520000
86246;BMP280;76916;0.000;0.000;2024-03-06T11:36:18;102490.230000;;;21.530000
86246;BMP280;76916;0.000;0.000;2024-03-06T11:36:57;102496.340000;;;21.530000
86246;BMP280;76916;0.000;0.000;2024-03-06T11:37:52;102489.730000;;;21.540000
86246;BMP280;76916;0.000;0.000;2024-03-06T11:38:47;102491.390000;;;21.530000
86246;BMP280;76916;0.000;0.000;2024-03-06T11:39:42;102494.470000;;;21.530000
86246;BMP280;76916;0.000;0.000;2024-03-06T11:40:42;102490.250000;;;21.540000
86246;BMP280;76916;0.000;0.000;2024-03-06T11:41:38;102498.360000;;;21.540000
86246;BMP280;76916;0.000;0.000;2024-03-06T11:42:32;102494.950000;;;21.550000
86246;BMP280;76916;0.000;0.000;2024-03-06T11:43:23;102494.300000;;;21.550000
86246;BMP280;76916;0.000;0.000;2024-03-06T11:44:17;102495.590000;;;21.550000
86246;BMP280;76916;0.000;0.000;2024-03-06T11:45:12;102500.280000;;;21.560000
86246;BMP280;76916;0.000;0.000;2024-03-06T11:46:08;102501.250000;;;21.560000
86246;BMP280;76916;0.000;0.000;2024-03-06T11:47:02;102502.920000;;;21.570000
86246;BMP280;76916;0.000;0.000;2024-03-06T11:47:59;102503.000000;;;21.570000
86246;BMP280;76916;0.000;0.000;2024-03-06T11:48:54;102492.830000;;;21.580000
86246;BMP280;76916;0.000;0.000;2024-03-06T11:49:47;102495.080000;;;21.580000
86246;BMP280;76916;0.000;0.000;2024-03-06T11:50:42;102495.160000;;;21.570000
86246;BMP280;76916;0.000;0.000;2024-03-06T11:51:38;102498.130000;;;21.580000
86246;BMP280;76916;0.000;0.000;2024-03-06T11:52:32;102496.170000;;;21.570000
86246;BMP280;76916;0.000;0.000;2024-03-06T11:53:27;102493.980000;;;21.580000
86246;BMP280;76916;0.000;0.000;2024-03-06T11:54:22;102491.940000;;;21.590000
86246;BMP280;76916;0.000;0.000;2024-03-06T11:55:17;102494.870000;;;21.580000
86246;BMP280;76916;0.000;0.000;2024-03-06T11:56:11;102500.130000;;;21.590000
86246;BMP280;76916;0.000;0.000;2024-03-06T11:57:06;102502.980000;;;21.590000
86246;BMP280;76916;0.000;0.000;2024-03-06T11:58:02;102491.890000;;;21.600000
86246;BMP280;76916;0.000;0.000;2024-03-06T11:58:56;102496.700000;;;21.610000
86246;BMP280;76916;0.000;0.000;2024-03-06T11:59:51;102501.200000;;;21.610000
86246;BMP280;76916;0.000;0.000;2024-03-06T12:00:47;102500.460000;;;21.620000
86246;BMP280;76916;0.000;0.000;2024-03-06T12:01:41;102497.070000;;;21.630000
86246;BMP280;76916;0.000;0.000;2024-03-06T12:02:37;102495.290000;;;21.640000
86246;BMP280;76916;0.000;0.000;2024-03-06T12:03:31;102494.440000;;;21.650000
86246;BMP280;76916;0.000;0.000;2024-03-06T12:04:27;102497.480000;;;21.660000
86246;BMP280;76916;0.000;0.000;2024-03-06T12:05:22;102494.420000;;;21.670000
86246;BMP280;76916;0.000;0.000;2024-03-06T12:06:16;102494.580000;;;21.680000
86246;BMP280;76916;0.000;0.000;2024-03-06T12:07:11;102489.110000;;;21.680000
86246;BMP280;76916;0.000;0.000;2024-03-06T12:08:07;102488.740000;;;21.690000
86246;BMP280;76916;0.000;0.000;2024-03-06T12:09:01;102485.720000;;;21.690000
86246;BMP280;76916;0.000;0.000;2024-03-06T12:09:57;102483.870000;;;21.690000
86246;BMP280;76916;0.000;0.000;2024-03-06T12:10:51;102488.710000;;;21.700000
86246;BMP280;76916;0.000;0.000;2024-03-06T12:11:47;102487.370000;;;21.710000
86246;BMP280;76916;0.000;0.000;2024-03-06T12:12:42;102488.780000;;;21.720000
86246;BMP280;76916;0.000;0.000;2024-03-06T12:13:41;102488.010000;;;21.720000
86246;BMP280;76916;0.000;0.000;2024-03-06T12:14:34;102497.060000;;;21.720000
86246;BMP280;76916;0.000;0.000;2024-03-06T12:15:26;102485.230000;;;21.730000
86246;BMP280;76916;0.000;0.000;2024-03-06T12:16:21;102490.940000;;;21.730000
86246;BMP280;76916;0.000;0.000;2024-03-06T12:17:16;102492.580000;;;21.740000
86246;BMP280;76916;0.000;0.000;2024-03-06T12:18:11;102493.810000;;;21.740000
86246;BMP280;76916;0.000;0.000;2024-03-06T12:19:06;102493.630000;;;21.740000
86246;BMP280;76916;0.000;0.000;2024-03-06T12:20:02;102502.090000;;;21.750000
86246;BMP280;76916;0.000;0.000;2024-03-06T12:20:56;102497.270000;;;21.750000
86246;BMP280;76916;0.000;0.000;2024-03-06T12:21:51;102495.170000;;;21.750000
86246;BMP280;76916;0.000;0.000;2024-03-06T12:22:48;102499.590000;;;21.760000
86246;BMP280;76916;0.000;0.000;2024-03-06T12:23:41;102499.780000;;;21.760000
86246;BMP280;76916;0.000;0.000;2024-03-06T12:24:36;102506.300000;;;21.760000
86246;BMP280;76916;0.000;0.000;2024-03-06T12:25:31;102498.340000;;;21.760000
86246;BMP280;76916;0.000;0.000;2024-03-06T12:26:26;102498.450000;;;21.770000
86246;BMP280;76916;0.000;0.000;2024-03-06T12:27:21;102495.480000;;;21.770000
86246;BMP280;76916;0.000;0.000;2024-03-06T12:28:16;102503.440000;;;21.770000
86246;BMP280;76916;0.000;0.000;2024-03-06T12:29:11;102499.170000;;;21.770000
86246;BMP280;76916;0.000;0.000;2024-03-06T12:30:08;102503.140000;;;21.770000
86246;BMP280;76916;0.000;0.000;2024-03-06T12:31:01;102505.560000;;;21.780000
86246;BMP280;76916;0.000;0.000;2024-03-06T12:31:57;102502.940000;;;21.780000
86246;BMP280;76916;0.000;0.000;2024-03-06T12:32:56;102503.390000;;;21.770000
86246;BMP280;76916;0.000;0.000;2024-03-06T12:33:46;102502.860000;;;21.780000
86246;BMP280;76916;0.000;0.000;2024-03-06T12:34:44;102504.870000;;;21.780000
86246;BMP280;76916;0.000;0.000;2024-03-06T12:35:36;102502.300000;;;21.780000
86246;BMP280;76916;0.000;0.000;2024-03-06T12:36:31;102502.780000;;;21.780000
86246;BMP280;76916;0.000;0.000;2024-03-06T12:37:29;102505.340000;;;21.780000
86246;BMP280;76916;0.000;0.000;2024-03-06T12:38:21;102501.000000;;;21.790000
86246;BMP280;76916;0.000;0.000;2024-03-06T12:39:16;102501.400000;;;21.790000
86246;BMP280;76916;0.000;0.000;2024-03-06T12:40:11;102501.480000;;;21.790000
86246;BMP280;76916;0.000;0.000;2024-03-06T12:41:06;102504.580000;;;21.790000
86246;BMP280;76916;0.000;0.000;2024-03-06T12:42:01;102501.160000;;;21.790000
86246;BMP280;76916;0.000;0.000;2024-03-06T12:42:57;102500.670000;;;21.800000
86246;BMP280;76916;0.000;0.000;2024-03-06T12:43:51;102503.560000;;;21.800000
86246;BMP280;76916;0.000;0.000;2024-03-06T12:44:46;102499.710000;;;21.800000
86246;BMP280;76916;0.000;0.000;2024-03-06T12:45:41;102496.860000;;;21.790000
86246;BMP280;76916;0.000;0.000;2024-03-06T12:46:36;102500.720000;;;21.790000
86246;BMP280;76916;0.000;0.000;2024-03-06T12:47:31;102500.430000;;;21.790000
86246;BMP280;76916;0.000;0.000;2024-03-06T12:48:25;102499.910000;;;21.790000
86246;BMP280;76916;0.000;0.000;2024-03-06T12:49:20;102498.790000;;;21.790000
86246;BMP280;76916;0.000;0.000;2024-03-06T12:50:15;102498.270000;;;21.790000
86246;BMP280;76916;0.000;0.000;2024-03-06T12:51:11;102504.690000;;;21.800000
86246;BMP280;76916;0.000;0.000;2024-03-06T12:52:05;102496.890000;;;21.790000
86246;BMP280;76916;0.000;0.000;2024-03-06T12:53:00;102492.800000;;;21.800000
86246;BMP280;76916;0.000;0.000;2024-03-06T12:53:55;102494.760000;;;21.800000
86246;BMP280;76916;0.000;0.000;2024-03-06T12:54:53;102497.560000;;;21.810000
86246;BMP280;76916;0.000;0.000;2024-03-06T12:55:45;102494.190000;;;21.810000
86246;BMP280;76916;0.000;0.000;2024-03-06T12:56:42;102495.150000;;;21.810000
86246;BMP280;76916;0.000;0.000;2024-03-06T12:57:35;102486.350000;;;21.810000
86246;BMP280;76916;0.000;0.000;2024-03-06T12:58:30;102489.590000;;;21.810000
86246;BMP280;76916;0.000;0.000;2024-03-06T12:59:25;102494.340000;;;21.810000
86246;BMP280;76916;0.000;0.000;2024-03-06T13:00:20;102492.300000;;;21.810000
86246;BMP280;76916;0.000;0.000;2024-03-06T13:01:15;102495.470000;;;21.820000
86246;BMP280;76916;0.000;0.000;2024-03-06T13:02:10;102490.160000;;;21.820000
86246;BMP280;76916;0.000;0.000;2024-03-06T13:03:05;102487.270000;;;21.820000
86246;BMP280;76916;0.000;0.000;2024-03-06T13:04:02;102490.320000;;;21.820000
86246;BMP280;76916;0.000;0.000;2024-03-06T13:04:55;102488.830000;;;21.820000
86246;BMP280;76916;0.000;0.000;2024-03-06T13:05:50;102484.800000;;;21.820000
86246;BMP280;76916;0.000;0.000;2024-03-06T13:06:45;102489.880000;;;21.820000
86246;BMP280;76916;0.000;0.000;2024-03-06T13:07:42;102489.710000;;;21.820000
86246;BMP280;76916;0.000;0.000;2024-03-06T13:08:38;102491.350000;;;21.830000
86246;BMP280;76916;0.000;0.000;2024-03-06T13:09:30;102487.170000;;;21.830000
86246;BMP280;76916;0.000;0.000;2024-03-06T13:10:25;102491.920000;;;21.830000
86246;BMP280;76916;0.000;0.000;2024-03-06T13:11:20;102495.450000;;;21.830000
86246;BMP280;76916;0.000;0.000;2024-03-06T13:12:15;102487.930000;;;21.830000
86246;BMP280;76916;0.000;0.000;2024-03-06T13:13:10;102490.180000;;;21.830000
86246;BMP280;76916;0.000;0.000;2024-03-06T13:14:05;102488.020000;;;21.830000
86246;BMP280;76916;0.000;0.000;2024-03-06T13:15:00;102489.250000;;;21.840000
86246;BMP280;76916;0.000;0.000;2024-03-06T13:15:55;102488.490000;;;21.830000
86246;BMP280;76916;0.000;0.000;2024-03-06T13:16:50;102491.730000;;;21.840000
86246;BMP280;76916;0.000;0.000;2024-03-06T13:17:45;102489.250000;;;21.840000
86246;BMP280;76916;0.000;0.000;2024-03-06T13:18:45;102494.110000;;;21.850000
86246;BMP280;76916;0.000;0.000;2024-03-06T13:19:35;102489.440000;;;21.850000
86246;BMP280;76916;0.000;0.000;2024-03-06T13:20:30;102490.360000;;;21.850000
86246;BMP280;76916;0.000;0.000;2024-03-06T13:21:25;102489.880000;;;21.850000
86246;BMP280;76916;0.000;0.000;2024-03-06T13:22:19;102481.520000;;;21.850000
86246;BMP280;76916;0.000;0.000;2024-03-06T13:23:14;102487.700000;;;21.850000
86246;BMP280;76916;0.000;0.000;2024-03-06T13:24:10;102489.030000;;;21.860000
86246;BMP280;76916;0.000;0.000;2024-03-06T13:25:05;102484.360000;;;21.860000
86246;BMP280;76916;0.000;0.000;2024-03-06T13:25:59;102490.160000;;;21.860000
86246;BMP280;76916;0.000;0.000;2024-03-06T13:26:55;102495.060000;;;21.860000
86246;BMP280;76916;0.000;0.000;2024-03-06T13:27:50;102495.300000;;;21.860000
86246;BMP280;76916;0.000;0.000;2024-03-06T13:28:45;102493.370000;;;21.860000
86246;BMP280;76916;0.000;0.000;2024-03-06T13:29:39;102490.800000;;;21.860000
86246;BMP280;76916;0.000;0.000;2024-03-06T13:30:35;102491.280000;;;21.860000
86246;BMP280;76916;0.000;0.000;2024-03-06T13:31:30;102492.390000;;;21.870000
86246;BMP280;76916;0.000;0.000;2024-03-06T13:32:24;102493.560000;;;21.870000
86246;BMP280;76916;0.000;0.000;2024-03-06T13:33:19;102491.750000;;;21.870000
86246;BMP280;76916;0.000;0.000;2024-03-06T13:34:14;102498.820000;;;21.870000
86246;BMP280;76916;0.000;0.000;2024-03-06T13:35:09;102499.730000;;;21.880000
86246;BMP280;76916;0.000;0.000;2024-03-06T13:36:05;102494.520000;;;21.880000
86246;BMP280;76916;0.000;0.000;2024-03-06T13:37:00;102502.150000;;;21.880000
86246;BMP280;76916;0.000;0.000;2024-03-06T13:37:54;102501.140000;;;21.880000
86246;BMP280;76916;0.000;0.000;2024-03-06T13:38:50;102504.080000;;;21.880000
86246;BMP280;76916;0.000;0.000;2024-03-06T13:39:44;102505.200000;;;21.880000
86246;BMP280;76916;0.000;0.000;2024-03-06T13:40:39;102497.770000;;;21.880000
86246;BMP280;76916;0.000;0.000;2024-03-06T13:41:34;102501.660000;;;21.890000
86246;BMP280;76916;0.000;0.000;2024-03-06T13:42:29;102502.050000;;;21.890000
86246;BMP280;76916;0.000;0.000;2024-03-06T13:43:24;102500.770000;;;21.890000
86246;BMP280;76916;0.000;0.000;2024-03-06T13:44:19;102502.620000;;;21.890000
86246;BMP280;76916;0.000;0.000;2024-03-06T13:45:14;102504.230000;;;21.890000
86246;BMP280;76916;0.000;0.000;2024-03-06T13:46:09;102500.850000;;;21.890000
86246;BMP280;76916;0.000;0.000;2024-03-06T13:47:06;102503.790000;;;21.890000
86246;BMP280;76916;0.000;0.000;2024-03-06T13:48:00;102506.400000;;;21.890000
86246;BMP280;76916;0.000;0.000;2024-03-06T13:48:55;102507.440000;;;21.890000
86246;BMP280;76916;0.000;0.000;2024-03-06T13:49:49;102507.130000;;;21.890000
86246;BMP280;76916;0.000;0.000;2024-03-06T13:50:44;102508.690000;;;21.900000
86246;BMP280;76916;0.000;0.000;2024-03-06T13:51:39;102509.330000;;;21.900000
86246;BMP280;76916;0.000;0.000;2024-03-06T13:52:34;102510.770000;;;21.900000
86246;BMP280;76916;0.000;0.000;2024-03-06T13:53:30;102507.640000;;;21.900000
86246;BMP280;76916;0.000;0.000;2024-03-06T13:54:24;102505.140000;;;21.900000
86246;BMP280;76916;0.000;0.000;2024-03-06T13:55:19;102508.800000;;;21.900000
86246;BMP280;76916;0.000;0.000;2024-03-06T13:56:14;102505.300000;;;21.900000
86246;BMP280;76916;0.000;0.000;2024-03-06T13:57:09;102510.770000;;;21.900000
86246;BMP280;76916;0.000;0.000;2024-03-06T13:58:04;102512.490000;;;21.900000